sensor_id;sensor_type;location;lat;lon;timestamp;pressure;altitude;pressure_sealevel;temperature;humidity
79131;BME280;70394;45.194;9.142;2023-07-31T00:01:43;100309.31;;;27.82;51.02
79131;BME280;70394;45.194;9.142;2023-07-31T00:04:08;100294.28;;;27.71;50.67
79131;BME280;70394;45.194;9.142;2023-07-31T00:06:33;100305.94;;;27.80;50.54
79131;BME280;70394;45.194;9.142;2023-07-31T00:08:59;100306.78;;;27.80;50.44
79131;BME280;70394;45.194;9.142;2023-07-31T00:11:24;100314.56;;;27.84;50.58
79131;BME280;70394;45.194;9.142;2023-07-31T00:13:50;100316.59;;;27.82;51.02
79131;BME280;70394;45.194;9.142;2023-07-31T00:16:15;100311.19;;;27.82;50.83
79131;BME280;70394;45.194;9.142;2023-07-31T00:18:41;100311.00;;;27.83;50.84
79131;BME280;70394;45.194;9.142;2023-07-31T00:21:06;100312.88;;;27.83;50.94
79131;BME280;70394;45.194;9.142;2023-07-31T00:23:31;100325.41;;;27.84;51.21
79131;BME280;70394;45.194;9.142;2023-07-31T00:25:56;100319.97;;;27.84;50.77
79131;BME280;70394;45.194;9.142;2023-07-31T00:28:22;100320.34;;;27.80;51.04
79131;BME280;70394;45.194;9.142;2023-07-31T00:30:47;100325.41;;;27.84;51.25
79131;BME280;70394;45.194;9.142;2023-07-31T00:33:12;100318.97;;;27.85;51.19
79131;BME280;70394;45.194;9.142;2023-07-31T00:35:38;100327.09;;;27.85;50.80
79131;BME280;70394;45.194;9.142;2023-07-31T00:38:03;100328.78;;;27.86;51.15
79131;BME280;70394;45.194;9.142;2023-07-31T00:40:28;100332.50;;;27.85;50.92
79131;BME280;70394;45.194;9.142;2023-07-31T00:42:54;100318.97;;;27.85;51.19
79131;BME280;70394;45.194;9.142;2023-07-31T00:45:19;100312.88;;;27.83;51.06
79131;BME280;70394;45.194;9.142;2023-07-31T00:47:48;100325.03;;;27.87;50.97
79131;BME280;70394;45.194;9.142;2023-07-31T00:50:14;100324.22;;;27.86;51.43
79131;BME280;70394;45.194;9.142;2023-07-31T00:52:39;100316.25;;;27.85;51.02
79131;BME280;70394;45.194;9.142;2023-07-31T00:55:05;100319.63;;;27.87;51.36
79131;BME280;70394;45.194;9.142;2023-07-31T00:57:32;100309.66;;;27.87;51.42
79131;BME280;70394;45.194;9.142;2023-07-31T00:59:58;100311.84;;;27.84;51.54
79131;BME280;70394;45.194;9.142;2023-07-31T01:02:24;100317.94;;;27.86;51.54
79131;BME280;70394;45.194;9.142;2023-07-31T01:04:49;100318.97;;;27.85;51.31
79131;BME280;70394;45.194;9.142;2023-07-31T01:07:34;100321.31;;;27.88;51.13
79131;BME280;70394;45.194;9.142;2023-07-31T01:12:44;100328.78;;;27.86;51.41
79131;BME280;70394;45.194;9.142;2023-07-31T01:15:10;100327.59;;;27.88;51.57
79131;BME280;70394;45.194;9.142;2023-07-31T01:17:39;100326.72;;;27.88;51.28
79131;BME280;70394;45.194;9.142;2023-07-31T01:20:11;100333.00;;;27.88;51.48
79131;BME280;70394;45.194;9.142;2023-07-31T01:28:13;100332.16;;;27.88;51.62
79131;BME280;70394;45.194;9.142;2023-07-31T01:30:43;100322.34;;;27.87;51.87
79131;BME280;70394;45.194;9.142;2023-07-31T01:33:10;100325.72;;;27.89;51.77
79131;BME280;70394;45.194;9.142;2023-07-31T01:35:37;100320.50;;;27.87;51.56
79131;BME280;70394;45.194;9.142;2023-07-31T01:38:03;100318.97;;;27.85;51.83
79131;BME280;70394;45.194;9.142;2023-07-31T01:40:29;100323.00;;;27.89;51.74
79131;BME280;70394;45.194;9.142;2023-07-31T01:42:54;100328.41;;;27.89;51.76
79131;BME280;70394;45.194;9.142;2023-07-31T01:45:20;100325.91;;;27.87;51.67
79131;BME280;70394;45.194;9.142;2023-07-31T01:47:45;100324.69;;;27.90;52.02
79131;BME280;70394;45.194;9.142;2023-07-31T01:50:10;100322.84;;;27.90;51.97
79131;BME280;70394;45.194;9.142;2023-07-31T01:52:36;100318.25;;;27.91;51.79
79131;BME280;70394;45.194;9.142;2023-07-31T01:55:01;100315.06;;;27.87;51.96
79131;BME280;70394;45.194;9.142;2023-07-31T01:57:27;100320.28;;;27.89;51.84
79131;BME280;70394;45.194;9.142;2023-07-31T01:59:52;100312.00;;;27.90;52.11
79131;BME280;70394;45.194;9.142;2023-07-31T02:02:21;100312.84;;;27.91;51.87
79131;BME280;70394;45.194;9.142;2023-07-31T02:04:48;100310.47;;;27.88;52.39
79131;BME280;70394;45.194;9.142;2023-07-31T02:07:13;100310.31;;;27.89;52.25
79131;BME280;70394;45.194;9.142;2023-07-31T02:09:39;100315.53;;;27.91;52.17
79131;BME280;70394;45.194;9.142;2023-07-31T02:12:04;100309.28;;;27.90;52.22
79131;BME280;70394;45.194;9.142;2023-07-31T02:14:30;100310.13;;;27.91;52.20
79131;BME280;70394;45.194;9.142;2023-07-31T02:16:55;100310.78;;;27.93;52.50
79131;BME280;70394;45.194;9.142;2023-07-31T02:19:20;100303.88;;;27.90;52.09
79131;BME280;70394;45.194;9.142;2023-07-31T02:21:46;100314.53;;;27.92;52.02
79131;BME280;70394;45.194;9.142;2023-07-31T02:24:11;100328.06;;;27.92;52.30
79131;BME280;70394;45.194;9.142;2023-07-31T02:26:36;100320.97;;;27.91;52.17
79131;BME280;70394;45.194;9.142;2023-07-31T02:29:02;100315.53;;;27.91;52.58
79131;BME280;70394;45.194;9.142;2023-07-31T02:31:27;100309.47;;;27.89;52.23
79131;BME280;70394;45.194;9.142;2023-07-31T02:33:52;100319.28;;;27.90;52.33
79131;BME280;70394;45.194;9.142;2023-07-31T02:36:18;100319.47;;;27.88;52.81
79131;BME280;70394;45.194;9.142;2023-07-31T02:38:44;100323.66;;;27.91;52.82
79131;BME280;70394;45.194;9.142;2023-07-31T02:41:09;100314.53;;;27.92;52.48
79131;BME280;70394;45.194;9.142;2023-07-31T02:43:34;100310.31;;;27.89;52.49
79131;BME280;70394;45.194;9.142;2023-07-31T02:46:00;100314.53;;;27.92;52.70
79131;BME280;70394;45.194;9.142;2023-07-31T02:48:25;100318.09;;;27.92;52.74
79131;BME280;70394;45.194;9.142;2023-07-31T02:50:50;100312.00;;;27.90;52.62
79131;BME280;70394;45.194;9.142;2023-07-31T02:53:16;100309.09;;;27.92;52.40
79131;BME280;70394;45.194;9.142;2023-07-31T02:55:41;100313.50;;;27.93;52.82
79131;BME280;70394;45.194;9.142;2023-07-31T02:58:06;100309.09;;;27.92;53.00
79131;BME280;70394;45.194;9.142;2023-07-31T03:00:32;100311.81;;;27.92;52.68
79131;BME280;70394;45.194;9.142;2023-07-31T03:02:57;100313.50;;;27.93;52.69
79131;BME280;70394;45.194;9.142;2023-07-31T03:05:22;100314.34;;;27.93;52.75
79131;BME280;70394;45.194;9.142;2023-07-31T03:07:48;100308.28;;;27.91;52.71
79131;BME280;70394;45.194;9.142;2023-07-31T03:10:13;100307.25;;;27.92;52.74
79131;BME280;70394;45.194;9.142;2023-07-31T03:12:40;100319.94;;;27.92;52.56
79131;BME280;70394;45.194;9.142;2023-07-31T03:15:05;100317.06;;;27.93;52.76
79131;BME280;70394;45.194;9.142;2023-07-31T03:17:31;100317.91;;;27.94;52.67
79131;BME280;70394;45.194;9.142;2023-07-31T03:19:56;100316.22;;;27.93;53.16
79131;BME280;70394;45.194;9.142;2023-07-31T03:22:22;100312.84;;;27.91;53.13
79131;BME280;70394;45.194;9.142;2023-07-31T03:24:47;100313.50;;;27.93;52.94
79131;BME280;70394;45.194;9.142;2023-07-31T03:27:12;100314.34;;;27.93;53.03
79131;BME280;70394;45.194;9.142;2023-07-31T03:29:38;100306.38;;;27.92;53.22
79131;BME280;70394;45.194;9.142;2023-07-31T03:32:03;100315.19;;;27.94;52.86
79131;BME280;70394;45.194;9.142;2023-07-31T03:34:29;100299.34;;;27.83;52.70
79131;BME280;70394;45.194;9.142;2023-07-31T03:36:54;100321.16;;;27.89;52.82
79131;BME280;70394;45.194;9.142;2023-07-31T03:39:20;100319.78;;;27.93;53.18
79131;BME280;70394;45.194;9.142;2023-07-31T03:41:45;100329.75;;;27.93;52.84
79131;BME280;70394;45.194;9.142;2023-07-31T03:44:11;100330.63;;;27.93;53.09
79131;BME280;70394;45.194;9.142;2023-07-31T03:46:36;100320.97;;;27.91;53.09
79131;BME280;70394;45.194;9.142;2023-07-31T03:49:01;100332.47;;;27.93;53.35
79131;BME280;70394;45.194;9.142;2023-07-31T03:51:27;100324.69;;;27.90;53.42
79131;BME280;70394;45.194;9.142;2023-07-31T03:53:52;100327.25;;;27.91;53.17
79131;BME280;70394;45.194;9.142;2023-07-31T03:56:18;100327.91;;;27.93;53.17
79131;BME280;70394;45.194;9.142;2023-07-31T03:58:43;100329.75;;;27.93;53.25
79131;BME280;70394;45.194;9.142;2023-07-31T04:01:08;100335.19;;;27.93;53.40
79131;BME280;70394;45.194;9.142;2023-07-31T04:03:34;100337.88;;;27.93;53.32
79131;BME280;70394;45.194;9.142;2023-07-31T04:05:59;100338.75;;;27.93;52.99
79131;BME280;70394;45.194;9.142;2023-07-31T04:08:24;100338.91;;;27.92;53.10
79131;BME280;70394;45.194;9.142;2023-07-31T04:10:50;100346.00;;;27.93;53.51
79131;BME280;70394;45.194;9.142;2023-07-31T04:13:15;100346.88;;;27.93;53.49
79131;BME280;70394;45.194;9.142;2023-07-31T04:15:41;100351.44;;;27.93;53.12
79131;BME280;70394;45.194;9.142;2023-07-31T04:18:06;100343.66;;;27.90;53.32
79131;BME280;70394;45.194;9.142;2023-07-31T04:20:32;100348.72;;;27.93;53.37
79131;BME280;70394;45.194;9.142;2023-07-31T04:22:57;100357.72;;;27.93;53.16
79131;BME280;70394;45.194;9.142;2023-07-31T04:25:22;100344.16;;;27.93;53.05
79131;BME280;70394;45.194;9.142;2023-07-31T04:27:48;100348.72;;;27.93;53.12
79131;BME280;70394;45.194;9.142;2023-07-31T04:30:14;100345.19;;;27.92;53.43
79131;BME280;70394;45.194;9.142;2023-07-31T04:32:39;100340.59;;;27.93;53.26
79131;BME280;70394;45.194;9.142;2023-07-31T04:35:05;100345.00;;;27.94;53.49
79131;BME280;70394;45.194;9.142;2023-07-31T04:37:30;100341.44;;;27.93;53.08
79131;BME280;70394;45.194;9.142;2023-07-31T04:39:56;100338.75;;;27.93;53.04
79131;BME280;70394;45.194;9.142;2023-07-31T04:42:21;100344.31;;;27.92;53.18
79131;BME280;70394;45.194;9.142;2023-07-31T04:44:46;100341.81;;;27.90;53.66
79131;BME280;70394;45.194;9.142;2023-07-31T04:47:12;100344.16;;;27.93;53.32
79131;BME280;70394;45.194;9.142;2023-07-31T04:49:37;100347.03;;;27.92;53.38
79131;BME280;70394;45.194;9.142;2023-07-31T04:52:03;100348.72;;;27.93;53.33
79131;BME280;70394;45.194;9.142;2023-07-31T04:54:28;100358.53;;;27.94;53.56
79131;BME280;70394;45.194;9.142;2023-07-31T04:56:54;100351.63;;;27.91;53.34
79131;BME280;70394;45.194;9.142;2023-07-31T04:59:19;100362.28;;;27.93;53.37
79131;BME280;70394;45.194;9.142;2023-07-31T05:01:44;100364.97;;;27.93;53.22
79131;BME280;70394;45.194;9.142;2023-07-31T05:04:13;100369.56;;;27.92;53.64
79131;BME280;70394;45.194;9.142;2023-07-31T05:06:42;100379.38;;;27.93;53.39
79131;BME280;70394;45.194;9.142;2023-07-31T05:09:07;100383.78;;;27.94;53.48
79131;BME280;70394;45.194;9.142;2023-07-31T05:11:34;100386.50;;;27.94;53.40
79131;BME280;70394;45.194;9.142;2023-07-31T05:14:00;100390.06;;;27.87;55.45
79131;BME280;70394;45.194;9.142;2023-07-31T05:16:25;100398.38;;;27.69;56.10
79131;BME280;70394;45.194;9.142;2023-07-31T05:18:50;100402.66;;;27.55;56.91
79131;BME280;70394;45.194;9.142;2023-07-31T05:21:16;100407.34;;;27.44;57.90
79131;BME280;70394;45.194;9.142;2023-07-31T05:23:41;100414.78;;;27.26;58.74
79131;BME280;70394;45.194;9.142;2023-07-31T05:26:07;100413.78;;;27.18;58.55
79131;BME280;70394;45.194;9.142;2023-07-31T05:28:34;100425.28;;;27.12;59.33
79131;BME280;70394;45.194;9.142;2023-07-31T05:31:01;100424.09;;;27.15;59.08
79131;BME280;70394;45.194;9.142;2023-07-31T05:33:26;100423.25;;;27.22;59.13
79131;BME280;70394;45.194;9.142;2023-07-31T05:35:52;100419.19;;;27.27;59.47
79131;BME280;70394;45.194;9.142;2023-07-31T05:38:17;100425.31;;;27.29;59.12
79131;BME280;70394;45.194;9.142;2023-07-31T05:40:43;100414.47;;;27.29;59.50
79131;BME280;70394;45.194;9.142;2023-07-31T05:43:08;100418.53;;;27.24;59.58
79131;BME280;70394;45.194;9.142;2023-07-31T05:45:34;100420.56;;;27.22;59.73
79131;BME280;70394;45.194;9.142;2023-07-31T05:48:00;100435.09;;;27.21;59.63
79131;BME280;70394;45.194;9.142;2023-07-31T05:50:25;100436.63;;;27.24;59.59
79131;BME280;70394;45.194;9.142;2023-07-31T05:52:51;100441.84;;;27.26;59.39
79131;BME280;70394;45.194;9.142;2023-07-31T05:55:17;100440.34;;;27.15;59.36
79131;BME280;70394;45.194;9.142;2023-07-31T05:57:42;100436.63;;;27.24;59.10
79131;BME280;70394;45.194;9.142;2023-07-31T06:00:08;100441.88;;;27.34;59.45
79131;BME280;70394;45.194;9.142;2023-07-31T06:02:34;100446.28;;;27.35;59.14
79131;BME280;70394;45.194;9.142;2023-07-31T06:05:02;100440.53;;;27.30;59.07
79131;BME280;70394;45.194;9.142;2023-07-31T06:07:29;100438.16;;;27.35;58.95
79131;BME280;70394;45.194;9.142;2023-07-31T06:09:54;100439.53;;;27.31;58.86
79131;BME280;70394;45.194;9.142;2023-07-31T06:12:20;100432.91;;;27.33;58.89
79131;BME280;70394;45.194;9.142;2023-07-31T06:14:46;100433.91;;;27.32;59.11
79131;BME280;70394;45.194;9.142;2023-07-31T06:17:11;100424.63;;;27.35;59.28
79131;BME280;70394;45.194;9.142;2023-07-31T06:19:36;100423.75;;;27.34;58.92
79131;BME280;70394;45.194;9.142;2023-07-31T06:22:02;100429.53;;;27.40;59.18
79131;BME280;70394;45.194;9.142;2023-07-31T06:24:28;100425.97;;;27.39;58.75
79131;BME280;70394;45.194;9.142;2023-07-31T06:26:53;100443.25;;;27.30;58.96
79131;BME280;70394;45.194;9.142;2023-07-31T06:29:19;100449.16;;;27.25;59.28
79131;BME280;70394;45.194;9.142;2023-07-31T06:31:44;100442.53;;;27.28;59.33
79131;BME280;70394;45.194;9.142;2023-07-31T06:34:09;100448.97;;;27.27;59.37
79131;BME280;70394;45.194;9.142;2023-07-31T06:36:35;100457.75;;;27.20;59.08
79131;BME280;70394;45.194;9.142;2023-07-31T06:39:00;100452.53;;;27.27;58.13
79131;BME280;70394;45.194;9.142;2023-07-31T06:41:26;100449.81;;;27.27;58.70
79131;BME280;70394;45.194;9.142;2023-07-31T06:43:51;100445.25;;;27.19;59.12
79131;BME280;70394;45.194;9.142;2023-07-31T06:46:16;100447.94;;;27.28;59.52
79131;BME280;70394;45.194;9.142;2023-07-31T06:48:42;100441.88;;;27.34;59.15
79131;BME280;70394;45.194;9.142;2023-07-31T06:51:07;100442.88;;;27.16;59.92
79131;BME280;70394;45.194;9.142;2023-07-31T06:53:32;100445.09;;;27.21;59.19
79131;BME280;70394;45.194;9.142;2023-07-31T06:55:58;100444.06;;;27.30;59.05
79131;BME280;70394;45.194;9.142;2023-07-31T06:58:23;100428.84;;;27.13;59.77
79131;BME280;70394;45.194;9.142;2023-07-31T07:00:48;100440.50;;;27.21;59.26
79131;BME280;70394;45.194;9.142;2023-07-31T07:03:18;100436.81;;;27.31;58.92
79131;BME280;70394;45.194;9.142;2023-07-31T07:05:44;100441.56;;;27.29;59.36
79131;BME280;70394;45.194;9.142;2023-07-31T07:08:09;100434.25;;;27.29;59.34
79131;BME280;70394;45.194;9.142;2023-07-31T07:10:34;100436.63;;;27.32;58.94
79131;BME280;70394;45.194;9.142;2023-07-31T07:13:00;100444.22;;;27.20;59.62
79131;BME280;70394;45.194;9.142;2023-07-31T07:15:25;100445.09;;;27.29;59.41
79131;BME280;70394;45.194;9.142;2023-07-31T07:17:51;100448.50;;;27.40;59.31
79131;BME280;70394;45.194;9.142;2023-07-31T07:20:16;100445.09;;;27.37;59.04
79131;BME280;70394;45.194;9.142;2023-07-31T07:22:41;100438.16;;;27.43;58.78
79131;BME280;70394;45.194;9.142;2023-07-31T07:25:08;100441.03;;;27.50;58.23
79131;BME280;70394;45.194;9.142;2023-07-31T07:27:34;100442.22;;;27.39;58.96
79131;BME280;70394;45.194;9.142;2023-07-31T07:30:00;100444.56;;;27.42;59.02
79131;BME280;70394;45.194;9.142;2023-07-31T07:32:25;100455.22;;;27.35;58.78
79131;BME280;70394;45.194;9.142;2023-07-31T07:34:51;100455.41;;;27.34;58.71
79131;BME280;70394;45.194;9.142;2023-07-31T07:37:16;100464.88;;;27.38;59.02
79131;BME280;70394;45.194;9.142;2023-07-31T07:39:42;100456.78;;;27.46;58.83
79131;BME280;70394;45.194;9.142;2023-07-31T07:42:08;100450.84;;;27.43;58.43
79131;BME280;70394;45.194;9.142;2023-07-31T07:44:33;100440.03;;;27.43;58.40
79131;BME280;70394;45.194;9.142;2023-07-31T07:46:58;100447.97;;;27.44;58.57
79131;BME280;70394;45.194;9.142;2023-07-31T07:49:24;100439.34;;;27.49;58.16
79131;BME280;70394;45.194;9.142;2023-07-31T07:51:49;100445.78;;;27.48;58.73
79131;BME280;70394;45.194;9.142;2023-07-31T07:54:15;100425.63;;;27.42;58.21
79131;BME280;70394;45.194;9.142;2023-07-31T07:56:42;100436.16;;;27.45;58.76
79131;BME280;70394;45.194;9.142;2023-07-31T07:59:07;100442.22;;;27.47;58.37
79131;BME280;70394;45.194;9.142;2023-07-31T08:01:32;100439.00;;;27.44;57.84
79131;BME280;70394;45.194;9.142;2023-07-31T08:03:58;100441.56;;;27.45;58.38
79131;BME280;70394;45.194;9.142;2023-07-31T08:06:23;100428.03;;;27.45;58.12
79131;BME280;70394;45.194;9.142;2023-07-31T08:08:49;100438.69;;;27.38;58.49
79131;BME280;70394;45.194;9.142;2023-07-31T08:11:14;100434.25;;;27.46;57.58
79131;BME280;70394;45.194;9.142;2023-07-31T08:13:40;100445.63;;;27.49;57.91
79131;BME280;70394;45.194;9.142;2023-07-31T08:16:05;100437.13;;;27.44;57.55
79131;BME280;70394;45.194;9.142;2023-07-31T08:18:31;100446.28;;;27.51;57.20
79131;BME280;70394;45.194;9.142;2023-07-31T08:20:57;100448.00;;;27.52;57.42
79131;BME280;70394;45.194;9.142;2023-07-31T08:23:22;100455.97;;;27.54;57.30
79131;BME280;70394;45.194;9.142;2023-07-31T08:25:48;100448.16;;;27.43;57.65
79131;BME280;70394;45.194;9.142;2023-07-31T08:28:15;100451.38;;;27.55;57.22
79131;BME280;70394;45.194;9.142;2023-07-31T08:30:40;100445.63;;;27.49;57.32
79131;BME280;70394;45.194;9.142;2023-07-31T08:33:06;100450.69;;;27.61;57.40
79131;BME280;70394;45.194;9.142;2023-07-31T08:35:32;100447.31;;;27.59;56.80
79131;BME280;70394;45.194;9.142;2023-07-31T08:37:57;100449.53;;;27.63;56.52
79131;BME280;70394;45.194;9.142;2023-07-31T08:40:22;100450.38;;;27.64;56.74
79131;BME280;70394;45.194;9.142;2023-07-31T08:42:49;100433.28;;;27.63;56.26
79131;BME280;70394;45.194;9.142;2023-07-31T08:45:16;100441.22;;;27.48;57.15
79131;BME280;70394;45.194;9.142;2023-07-31T08:47:47;100431.06;;;27.59;56.74
79131;BME280;70394;45.194;9.142;2023-07-31T08:50:13;100439.56;;;27.64;56.44
79131;BME280;70394;45.194;9.142;2023-07-31T08:52:39;100435.13;;;27.71;55.92
79131;BME280;70394;45.194;9.142;2023-07-31T08:55:05;100427.00;;;27.71;55.70
79131;BME280;70394;45.194;9.142;2023-07-31T08:57:31;100430.41;;;27.65;55.99
79131;BME280;70394;45.194;9.142;2023-07-31T08:59:59;100429.03;;;27.69;55.84
79131;BME280;70394;45.194;9.142;2023-07-31T09:02:31;100420.06;;;27.69;55.71
79131;BME280;70394;45.194;9.142;2023-07-31T09:04:59;100418.19;;;27.77;55.96
79131;BME280;70394;45.194;9.142;2023-07-31T09:07:25;100415.31;;;27.79;55.85
79131;BME280;70394;45.194;9.142;2023-07-31T09:09:50;100415.81;;;27.83;55.43
79131;BME280;70394;45.194;9.142;2023-07-31T09:12:16;100418.19;;;27.86;55.11
79131;BME280;70394;45.194;9.142;2023-07-31T09:14:43;100404.63;;;27.86;55.93
79131;BME280;70394;45.194;9.142;2023-07-31T09:17:10;100411.41;;;27.90;55.34
79131;BME280;70394;45.194;9.142;2023-07-31T09:19:36;100412.06;;;27.92;55.50
79131;BME280;70394;45.194;9.142;2023-07-31T09:22:05;100420.91;;;27.86;56.14
79131;BME280;70394;45.194;9.142;2023-07-31T09:24:32;100423.56;;;27.94;55.81
79131;BME280;70394;45.194;9.142;2023-07-31T09:27:00;100416.97;;;27.97;55.31
79131;BME280;70394;45.194;9.142;2023-07-31T09:29:27;100426.97;;;27.96;54.69
79131;BME280;70394;45.194;9.142;2023-07-31T09:31:54;100429.00;;;27.94;55.39
79131;BME280;70394;45.194;9.142;2023-07-31T09:34:20;100429.69;;;27.88;55.57
79131;BME280;70394;45.194;9.142;2023-07-31T09:36:47;100428.31;;;27.92;55.52
79131;BME280;70394;45.194;9.142;2023-07-31T09:39:14;100423.59;;;27.86;56.10
79131;BME280;70394;45.194;9.142;2023-07-31T09:41:46;100429.00;;;27.77;56.01
79131;BME280;70394;45.194;9.142;2023-07-31T09:44:12;100426.63;;;27.91;55.32
79131;BME280;70394;45.194;9.142;2023-07-31T09:46:38;100413.28;;;27.89;55.88
79131;BME280;70394;45.194;9.142;2023-07-31T09:49:14;100415.44;;;27.94;55.13
79131;BME280;70394;45.194;9.142;2023-07-31T09:51:41;100421.72;;;27.94;55.40
79131;BME280;70394;45.194;9.142;2023-07-31T09:54:15;100417.63;;;27.99;55.40
79131;BME280;70394;45.194;9.142;2023-07-31T09:56:45;100413.41;;;28.04;55.20
79131;BME280;70394;45.194;9.142;2023-07-31T09:59:12;100414.56;;;28.02;55.06
79131;BME280;70394;45.194;9.142;2023-07-31T10:01:40;100398.50;;;28.00;55.30
79131;BME280;70394;45.194;9.142;2023-07-31T10:04:07;100405.94;;;28.06;54.94
79131;BME280;70394;45.194;9.142;2023-07-31T10:06:34;100411.03;;;28.01;55.06
79131;BME280;70394;45.194;9.142;2023-07-31T10:09:02;100402.56;;;28.04;54.68
79131;BME280;70394;45.194;9.142;2023-07-31T10:11:29;100398.66;;;28.07;55.12
79131;BME280;70394;45.194;9.142;2023-07-31T10:13:55;100402.88;;;28.09;54.92
79131;BME280;70394;45.194;9.142;2023-07-31T10:16:22;100398.16;;;28.03;55.21
79131;BME280;70394;45.194;9.142;2023-07-31T10:18:47;100394.47;;;27.96;54.80
79131;BME280;70394;45.194;9.142;2023-07-31T10:21:14;100389.88;;;27.97;54.98
79131;BME280;70394;45.194;9.142;2023-07-31T10:23:40;100386.34;;;27.96;55.33
79131;BME280;70394;45.194;9.142;2023-07-31T10:26:08;100391.41;;;27.99;55.09
79131;BME280;70394;45.194;9.142;2023-07-31T10:28:36;100399.31;;;28.09;55.17
79131;BME280;70394;45.194;9.142;2023-07-31T10:31:03;100387.31;;;28.12;54.56
79131;BME280;70394;45.194;9.142;2023-07-31T10:33:29;100395.06;;;28.15;54.41
79131;BME280;70394;45.194;9.142;2023-07-31T10:36:16;100384.75;;;28.10;54.65
79131;BME280;70394;45.194;9.142;2023-07-31T10:38:42;100386.78;;;28.08;54.42
79131;BME280;70394;45.194;9.142;2023-07-31T10:41:09;100374.44;;;28.05;54.19
79131;BME280;70394;45.194;9.142;2023-07-31T10:43:36;100366.50;;;28.04;54.66
79131;BME280;70394;45.194;9.142;2023-07-31T10:46:06;100358.84;;;28.07;54.02
79131;BME280;70394;45.194;9.142;2023-07-31T10:48:35;100362.22;;;28.09;54.40
79131;BME280;70394;45.194;9.142;2023-07-31T10:51:07;100363.06;;;28.10;54.31
79131;BME280;70394;45.194;9.142;2023-07-31T10:53:33;100351.72;;;28.15;53.82
79131;BME280;70394;45.194;9.142;2023-07-31T10:56:05;100352.53;;;28.15;54.00
79131;BME280;70394;45.194;9.142;2023-07-31T10:58:31;100347.97;;;28.16;54.28
79131;BME280;70394;45.194;9.142;2023-07-31T11:00:59;100347.00;;;28.17;54.17
79131;BME280;70394;45.194;9.142;2023-07-31T11:03:48;100347.97;;;28.16;54.27
79131;BME280;70394;45.194;9.142;2023-07-31T11:06:15;100356.09;;;28.24;54.74
79131;BME280;70394;45.194;9.142;2023-07-31T11:08:49;100352.03;;;28.28;54.38
79131;BME280;70394;45.194;9.142;2023-07-31T11:11:16;100347.28;;;28.30;53.89
79131;BME280;70394;45.194;9.142;2023-07-31T11:13:49;100342.19;;;28.27;53.76
79131;BME280;70394;45.194;9.142;2023-07-31T11:16:15;100347.59;;;28.27;54.36
79131;BME280;70394;45.194;9.142;2023-07-31T11:18:45;100352.50;;;28.32;53.86
79131;BME280;70394;45.194;9.142;2023-07-31T11:21:15;100348.97;;;28.31;53.82
79131;BME280;70394;45.194;9.142;2023-07-31T11:23:41;100341.50;;;28.33;54.25
79131;BME280;70394;45.194;9.142;2023-07-31T11:26:10;100336.91;;;28.34;53.94
79131;BME280;70394;45.194;9.142;2023-07-31T11:28:35;100342.81;;;28.38;53.84
79131;BME280;70394;45.194;9.142;2023-07-31T11:31:02;100344.88;;;28.35;54.24
79131;BME280;70394;45.194;9.142;2023-07-31T11:33:27;100336.56;;;28.37;53.59
79131;BME280;70394;45.194;9.142;2023-07-31T11:35:53;100328.59;;;28.35;54.11
79131;BME280;70394;45.194;9.142;2023-07-31T11:38:28;100332.81;;;28.38;53.92
79131;BME280;70394;45.194;9.142;2023-07-31T11:40:56;100317.03;;;28.42;54.35
79131;BME280;70394;45.194;9.142;2023-07-31T11:43:22;100307.94;;;28.34;53.89
79131;BME280;70394;45.194;9.142;2023-07-31T11:45:49;100317.88;;;28.42;54.25
79131;BME280;70394;45.194;9.142;2023-07-31T11:48:27;100310.03;;;28.47;53.77
79131;BME280;70394;45.194;9.142;2023-07-31T11:51:10;100314.28;;;28.50;53.72
79131;BME280;70394;45.194;9.142;2023-07-31T11:53:51;100311.94;;;28.47;54.33
79131;BME280;70394;45.194;9.142;2023-07-31T11:56:19;100315.09;;;28.50;53.82
79131;BME280;70394;45.194;9.142;2023-07-31T11:58:47;100307.31;;;28.56;53.99
79131;BME280;70394;45.194;9.142;2023-07-31T12:01:18;100293.41;;;28.50;53.92
79131;BME280;70394;45.194;9.142;2023-07-31T12:03:46;100303.59;;;28.48;53.95
79131;BME280;70394;45.194;9.142;2023-07-31T12:06:12;100300.41;;;28.45;53.40
79131;BME280;70394;45.194;9.142;2023-07-31T12:08:37;100300.59;;;28.43;53.84
79131;BME280;70394;45.194;9.142;2023-07-31T12:11:08;100283.78;;;28.48;53.19
79131;BME280;70394;45.194;9.142;2023-07-31T12:13:36;100291.19;;;28.54;53.34
79131;BME280;70394;45.194;9.142;2023-07-31T12:16:03;100297.28;;;28.56;53.79
79131;BME280;70394;45.194;9.142;2023-07-31T12:18:33;100284.75;;;28.55;54.00
79131;BME280;70394;45.194;9.142;2023-07-31T12:21:00;100283.25;;;28.53;53.16
79131;BME280;70394;45.194;9.142;2023-07-31T12:23:27;100288.69;;;28.53;53.91
79131;BME280;70394;45.194;9.142;2023-07-31T12:26:13;100282.09;;;28.47;53.86
79131;BME280;70394;45.194;9.142;2023-07-31T12:28:45;100281.38;;;28.53;53.39
79131;BME280;70394;45.194;9.142;2023-07-31T12:31:16;100275.94;;;28.53;53.45
79131;BME280;70394;45.194;9.142;2023-07-31T12:33:46;100264.44;;;28.51;53.57
79131;BME280;70394;45.194;9.142;2023-07-31T12:36:22;100262.34;;;28.38;53.64
79131;BME280;70394;45.194;9.142;2023-07-31T12:38:49;100252.97;;;28.41;53.63
79131;BME280;70394;45.194;9.142;2023-07-31T12:41:15;100247.19;;;28.44;53.79
79131;BME280;70394;45.194;9.142;2023-07-31T12:43:42;100250.75;;;28.44;53.79
79131;BME280;70394;45.194;9.142;2023-07-31T12:46:08;100243.28;;;28.46;53.34
79131;BME280;70394;45.194;9.142;2023-07-31T12:48:34;100249.56;;;28.47;53.64
79131;BME280;70394;45.194;9.142;2023-07-31T12:50:59;100238.34;;;28.50;53.12
79131;BME280;70394;45.194;9.142;2023-07-31T12:53:25;100232.72;;;28.51;53.31
79131;BME280;70394;45.194;9.142;2023-07-31T12:55:50;100228.00;;;28.54;53.14